createdAt,value
2023-05-20T00:01:31.201Z,17.60
2023-05-20T00:04:35.275Z,17.45
2023-05-20T00:07:39.295Z,17.59
2023-05-20T00:10:43.244Z,17.62
2023-05-20T00:13:48.820Z,17.69
2023-05-20T00:16:52.895Z,17.56
2023-05-20T00:19:56.885Z,17.66
2023-05-20T00:23:00.801Z,17.66
2023-05-20T00:26:04.797Z,17.56
2023-05-20T00:29:10.489Z,17.70
2023-05-20T00:32:14.621Z,17.70
2023-05-20T00:35:18.628Z,17.67
2023-05-20T00:38:22.648Z,17.60
2023-05-20T00:41:26.593Z,17.60
2023-05-20T00:44:32.046Z,17.41
2023-05-20T00:47:37.780Z,17.44
2023-05-20T00:50:42.301Z,17.43
2023-05-20T00:53:46.550Z,17.42
2023-05-20T00:56:51.196Z,17.25
2023-05-20T00:59:57.040Z,17.25
2023-05-20T01:03:01.244Z,17.39
2023-05-20T01:06:05.505Z,17.26
2023-05-20T01:09:09.649Z,17.32
2023-05-20T01:12:18.870Z,17.06
2023-05-20T01:15:27.664Z,17.08
2023-05-20T01:18:33.913Z,16.86
2023-05-20T01:21:38.990Z,16.91
2023-05-20T01:24:46.053Z,16.80
2023-05-20T01:27:50.607Z,16.96
2023-05-20T01:30:58.115Z,16.77
2023-05-20T01:34:02.989Z,16.97
2023-05-20T01:37:08.061Z,16.91
2023-05-20T01:40:16.934Z,16.82
2023-05-20T01:43:21.991Z,16.81
2023-05-20T01:46:25.973Z,16.86
2023-05-20T01:49:29.996Z,16.74
2023-05-20T01:52:33.916Z,16.82
2023-05-20T01:55:39.274Z,16.85
2023-05-20T01:58:43.428Z,16.79
2023-05-20T02:01:47.583Z,16.54
2023-05-20T02:04:53.744Z,16.62
2023-05-20T02:07:57.756Z,16.37
2023-05-20T02:11:03.135Z,16.30
2023-05-20T02:14:09.719Z,16.33
2023-05-20T02:17:14.933Z,16.30
2023-05-20T02:20:19.380Z,16.10
2023-05-20T02:23:23.667Z,16.33
2023-05-20T02:26:29.161Z,16.10
2023-05-20T02:29:33.449Z,16.14
2023-05-20T02:32:37.557Z,16.20
2023-05-20T02:35:41.806Z,16.09
2023-05-20T02:38:46.237Z,16.34
2023-05-20T02:41:51.564Z,16.31
2023-05-20T02:44:58.744Z,16.27
2023-05-20T02:48:02.714Z,16.33
2023-05-20T02:51:08.507Z,16.30
2023-05-20T02:54:12.580Z,16.21
2023-05-20T02:57:18.085Z,16.30
2023-05-20T03:00:23.964Z,16.38
2023-05-20T03:03:28.678Z,16.38
2023-05-20T03:06:33.351Z,16.49
2023-05-20T03:09:37.677Z,16.32
2023-05-20T03:12:43.405Z,16.39
2023-05-20T03:15:47.795Z,16.45
2023-05-20T03:18:52.549Z,16.52
2023-05-20T03:21:56.829Z,16.28
2023-05-20T03:25:02.787Z,16.39
2023-05-20T03:28:08.497Z,16.55
2023-05-20T03:31:14.548Z,16.46
2023-05-20T03:34:18.507Z,15.79
2023-05-20T03:37:24.460Z,16.26
2023-05-20T03:40:28.385Z,16.37
2023-05-20T03:43:33.872Z,16.56
2023-05-20T03:46:38.338Z,16.62
2023-05-20T03:49:42.787Z,16.84
2023-05-20T03:52:46.496Z,17.24
2023-05-20T03:55:52.503Z,17.47
2023-05-20T03:58:58.508Z,17.36
2023-05-20T04:02:03.003Z,17.29
2023-05-20T04:05:09.154Z,17.42
2023-05-20T04:08:15.054Z,17.42
2023-05-20T04:11:18.878Z,17.39
2023-05-20T04:14:24.426Z,17.42
2023-05-20T04:17:30.323Z,17.21
2023-05-20T04:20:34.667Z,17.64
2023-05-20T04:23:38.977Z,17.81
2023-05-20T04:26:42.925Z,17.80
2023-05-20T04:29:50.395Z,17.87
2023-05-20T04:32:55.989Z,18.23
2023-05-20T04:36:02.007Z,17.89
2023-05-20T04:39:06.835Z,17.70
2023-05-20T04:42:11.476Z,17.43
2023-05-20T04:45:16.917Z,17.35
2023-05-20T04:48:22.650Z,17.50
2023-05-20T04:51:29.795Z,18.05
2023-05-20T04:54:34.462Z,18.58
2023-05-20T04:57:42.533Z,18.80
2023-05-20T05:00:48.665Z,19.25
2023-05-20T05:03:52.712Z,19.40
2023-05-20T05:06:58.300Z,19.75
2023-05-20T05:10:02.400Z,19.99
2023-05-20T05:13:08.101Z,20.10
2023-05-20T05:16:13.644Z,20.27
2023-05-20T05:19:17.968Z,20.57
2023-05-20T05:22:21.989Z,20.33
2023-05-20T05:25:26.707Z,20.57
2023-05-20T05:28:30.919Z,20.86
2023-05-20T05:31:37.011Z,21.22
2023-05-20T05:34:41.324Z,21.44
2023-05-20T05:37:45.861Z,21.57
2023-05-20T05:40:49.889Z,21.79
2023-05-20T05:43:54.812Z,22.20
2023-05-20T05:47:02.762Z,22.50
2023-05-20T05:50:08.108Z,21.70
2023-05-20T05:53:12.655Z,21.91
2023-05-20T05:56:19.368Z,22.21
2023-05-20T05:59:24.092Z,22.30
2023-05-20T06:02:30.042Z,22.27
2023-05-20T06:05:34.722Z,22.23
2023-05-20T06:08:39.045Z,22.63
2023-05-20T06:11:44.784Z,22.54
2023-05-20T06:14:49.254Z,23.01
2023-05-20T06:17:55.043Z,23.39
2023-05-20T06:20:59.754Z,23.72
2023-05-20T06:24:04.334Z,23.61
2023-05-20T06:27:09.173Z,23.58
2023-05-20T06:30:14.136Z,23.62
2023-05-20T06:33:20.543Z,23.91
2023-05-20T06:36:24.906Z,23.87
2023-05-20T06:39:28.985Z,23.74
2023-05-20T06:42:33.116Z,24.28
2023-05-20T06:45:41.216Z,24.63
2023-05-20T06:49:01.316Z,24.12
2023-05-20T06:52:05.751Z,24.47
2023-05-20T06:55:11.279Z,24.69
2023-05-20T06:58:17.341Z,24.94
2023-05-20T07:01:21.633Z,25.26
2023-05-20T07:04:27.173Z,25.36
2023-05-20T07:07:31.254Z,25.52
2023-05-20T07:10:36.080Z,25.63
2023-05-20T07:13:40.671Z,25.78
2023-05-20T07:16:44.957Z,25.73
2023-05-20T07:19:51.156Z,25.97
2023-05-20T07:22:55.313Z,25.73
2023-05-20T07:26:07.292Z,25.73
2023-05-20T07:29:11.905Z,26.15
2023-05-20T07:32:16.595Z,25.67
2023-05-20T07:35:22.333Z,26.19
2023-05-20T07:38:26.730Z,26.79
2023-05-20T07:41:37.937Z,26.67
2023-05-20T07:44:43.626Z,26.86
2023-05-20T07:47:47.780Z,26.30
2023-05-20T07:50:53.172Z,26.38
2023-05-20T07:53:57.787Z,26.60
2023-05-20T07:57:02.541Z,26.27
2023-05-20T08:00:08.955Z,26.85
2023-05-20T08:03:22.571Z,27.34
2023-05-20T08:06:40.193Z,27.39
2023-05-20T08:09:48.031Z,27.65
2023-05-20T08:12:54.066Z,27.08
2023-05-20T08:15:58.194Z,27.86
2023-05-20T08:19:03.242Z,27.35
2023-05-20T08:22:09.073Z,27.11
2023-05-20T08:25:13.109Z,26.76
2023-05-20T08:28:17.474Z,27.39
2023-05-20T08:31:22.330Z,27.67
2023-05-20T08:34:27.458Z,26.85
2023-05-20T08:37:32.923Z,27.38
2023-05-20T08:40:37.391Z,27.32
2023-05-20T08:43:42.425Z,26.84
2023-05-20T08:46:49.615Z,26.31
2023-05-20T08:49:53.572Z,26.35
2023-05-20T08:52:59.616Z,27.23
2023-05-20T08:56:04.245Z,27.72
2023-05-20T08:59:08.294Z,27.77
2023-05-20T09:02:12.989Z,27.89
2023-05-20T09:05:17.456Z,27.21
2023-05-20T09:08:27.177Z,27.13
2023-05-20T09:11:32.204Z,26.62
2023-05-20T09:14:36.288Z,26.68
2023-05-20T09:17:40.670Z,26.82
2023-05-20T09:20:44.584Z,27.07
2023-05-20T09:23:50.903Z,26.99
2023-05-20T09:26:55.177Z,26.67
2023-05-20T09:29:59.272Z,26.25
2023-05-20T09:33:08.061Z,25.72
2023-05-20T09:36:13.938Z,26.05
2023-05-20T09:39:27.481Z,26.57
2023-05-20T09:42:39.680Z,27.07
2023-05-20T09:45:44.100Z,27.30
2023-05-20T09:48:48.292Z,27.96
2023-05-20T09:51:54.826Z,26.77
2023-05-20T09:55:01.951Z,26.34
2023-05-20T09:58:05.934Z,26.82
2023-05-20T10:01:10.088Z,27.05
2023-05-20T10:04:17.561Z,26.46
2023-05-20T10:07:42.282Z,26.08
2023-05-20T10:10:52.370Z,26.13
2023-05-20T10:14:13.861Z,25.91
2023-05-20T10:17:26.879Z,25.73
2023-05-20T10:20:32.085Z,25.55
2023-05-20T10:23:36.283Z,25.60
2023-05-20T10:26:43.601Z,25.62
2023-05-20T10:29:51.952Z,25.38
2023-05-20T10:32:57.765Z,25.44
2023-05-20T10:36:02.956Z,25.41
2023-05-20T10:39:07.582Z,25.69
2023-05-20T10:42:13.200Z,26.04
2023-05-20T10:45:27.503Z,25.87
2023-05-20T10:48:32.975Z,25.81
2023-05-20T10:51:39.172Z,25.44
2023-05-20T10:54:47.742Z,24.81
2023-05-20T10:57:55.399Z,25.35
2023-05-20T11:00:59.726Z,25.10
2023-05-20T11:04:06.092Z,24.97
2023-05-20T11:07:10.238Z,24.83
2023-05-20T11:10:14.712Z,24.80
2023-05-20T11:13:20.650Z,24.77
2023-05-20T11:16:24.995Z,24.80
2023-05-20T11:19:29.615Z,25.07
2023-05-20T11:22:33.681Z,25.18
2023-05-20T11:25:37.679Z,25.60
2023-05-20T11:28:43.281Z,25.98
2023-05-20T11:31:51.577Z,25.79
2023-05-20T11:34:55.682Z,25.48
2023-05-20T11:38:03.685Z,25.27
2023-05-20T11:41:07.689Z,25.36
2023-05-20T11:44:14.357Z,25.45
2023-05-20T11:47:21.304Z,25.40
2023-05-20T11:50:26.731Z,25.30
2023-05-20T11:53:30.699Z,25.44
2023-05-20T11:56:36.923Z,25.10
2023-05-20T11:59:42.483Z,24.97
2023-05-20T12:02:46.675Z,24.74
2023-05-20T12:05:51.679Z,24.53
2023-05-20T12:08:55.659Z,24.39
2023-05-20T12:11:59.680Z,24.45
2023-05-20T12:15:05.559Z,24.46
2023-05-20T12:18:10.388Z,24.36
2023-05-20T12:21:14.805Z,24.51
2023-05-20T12:24:18.861Z,24.37
2023-05-20T12:27:23.055Z,24.40
2023-05-20T12:30:28.656Z,24.69
2023-05-20T12:33:32.712Z,24.67
2023-05-20T12:36:36.678Z,24.32
2023-05-20T12:39:40.753Z,24.61
2023-05-20T12:42:46.453Z,24.75
2023-05-20T12:45:52.695Z,24.75
2023-05-20T12:48:56.773Z,24.40
2023-05-20T12:52:03.520Z,24.25
2023-05-20T12:55:14.193Z,24.17
2023-05-20T12:58:18.337Z,24.14
2023-05-20T13:01:23.889Z,24.16
2023-05-20T13:04:27.992Z,24.35
2023-05-20T13:07:32.402Z,24.58
2023-05-20T13:10:36.736Z,24.58
2023-05-20T13:13:41.846Z,24.84
2023-05-20T13:16:47.560Z,24.44
2023-05-20T13:19:51.579Z,24.40
2023-05-20T13:22:55.581Z,24.20
2023-05-20T13:25:59.617Z,24.03
2023-05-20T13:29:03.703Z,24.10
2023-05-20T13:32:09.667Z,24.47
2023-05-20T13:35:15.002Z,24.66
2023-05-20T13:38:19.108Z,25.18
2023-05-20T13:41:23.180Z,25.24
2023-05-20T13:44:27.819Z,25.00
2023-05-20T13:47:33.886Z,25.30
2023-05-20T13:50:38.062Z,25.31
2023-05-20T13:53:42.215Z,25.27
2023-05-20T13:56:46.307Z,25.28
2023-05-20T13:59:50.285Z,25.82
2023-05-20T14:02:55.841Z,25.72
2023-05-20T14:06:00.214Z,25.45
2023-05-20T14:09:04.585Z,25.87
2023-05-20T14:12:09.596Z,26.08
2023-05-20T14:15:13.726Z,26.33
2023-05-20T14:18:19.443Z,26.16
2023-05-20T14:21:23.519Z,25.70
2023-05-20T14:24:27.663Z,25.97
2023-05-20T14:27:31.705Z,25.40
2023-05-20T14:30:36.177Z,25.00
2023-05-20T14:33:41.754Z,25.21
2023-05-20T14:36:45.957Z,24.93
2023-05-20T14:39:50.019Z,24.83
2023-05-20T14:42:54.026Z,24.78
2023-05-20T14:45:58.052Z,24.68
2023-05-20T14:49:03.683Z,24.71
2023-05-20T14:52:07.976Z,24.39
2023-05-20T14:55:11.989Z,24.33
2023-05-20T14:58:16.104Z,23.75
2023-05-20T15:01:20.051Z,23.47
2023-05-20T15:04:25.680Z,24.26
2023-05-20T15:07:29.716Z,24.10
2023-05-20T15:10:33.989Z,24.33
2023-05-20T15:13:40.322Z,24.41
2023-05-20T15:16:44.725Z,24.42
2023-05-20T15:19:50.267Z,24.61
2023-05-20T15:22:55.326Z,24.56
2023-05-20T15:25:59.874Z,24.75
2023-05-20T15:29:04.078Z,24.73
2023-05-20T15:32:08.727Z,25.14
2023-05-20T15:35:14.294Z,25.06
2023-05-20T15:38:18.762Z,24.48
2023-05-20T15:41:23.423Z,24.69
2023-05-20T15:44:29.055Z,24.60
2023-05-20T15:47:33.039Z,24.52
2023-05-20T15:50:38.861Z,24.20
2023-05-20T15:53:42.977Z,24.11
2023-05-20T15:56:46.971Z,23.96
2023-05-20T15:59:51.177Z,23.89
2023-05-20T16:02:56.810Z,23.71
2023-05-20T16:06:02.472Z,23.59
2023-05-20T16:09:06.456Z,23.84
2023-05-20T16:12:10.557Z,23.88
2023-05-20T16:15:14.782Z,23.58
2023-05-20T16:18:19.173Z,23.58
2023-05-20T16:21:25.344Z,23.55
2023-05-20T16:24:29.338Z,23.58
2023-05-20T16:27:33.811Z,23.62
2023-05-20T16:30:38.159Z,23.55
2023-05-20T16:33:42.175Z,23.45
2023-05-20T16:36:47.781Z,23.54
2023-05-20T16:39:51.711Z,23.45
2023-05-20T16:42:55.870Z,23.47
2023-05-20T16:46:00.034Z,23.32
2023-05-20T16:49:04.130Z,23.23
2023-05-20T16:52:10.112Z,23.34
2023-05-20T16:55:14.247Z,23.21
2023-05-20T16:58:18.366Z,23.30
2023-05-20T17:01:23.374Z,23.19
2023-05-20T17:04:27.379Z,23.03
2023-05-20T17:07:33.871Z,22.84
2023-05-20T17:10:37.863Z,22.57
2023-05-20T17:13:42.265Z,22.54
2023-05-20T17:16:46.255Z,22.32
2023-05-20T17:19:50.201Z,21.96
2023-05-20T17:22:55.736Z,22.09
2023-05-20T17:25:59.635Z,21.94
2023-05-20T17:29:03.780Z,22.06
2023-05-20T17:32:08.682Z,22.09
2023-05-20T17:35:12.661Z,22.13
2023-05-20T17:38:18.176Z,21.90
2023-05-20T17:41:22.235Z,21.75
2023-05-20T17:44:26.322Z,21.84
2023-05-20T17:47:30.456Z,21.81
2023-05-20T17:50:34.844Z,21.87
2023-05-20T17:53:40.544Z,21.79
2023-05-20T17:56:47.807Z,21.76
2023-05-20T17:59:51.807Z,21.67
2023-05-20T18:02:57.999Z,21.77
2023-05-20T18:06:02.123Z,21.73
2023-05-20T18:09:07.733Z,21.67
2023-05-20T18:12:11.730Z,21.50
2023-05-20T18:15:18.104Z,21.48
2023-05-20T18:18:22.093Z,21.57
2023-05-20T18:21:26.889Z,21.44
2023-05-20T18:24:32.496Z,21.27
2023-05-20T18:27:36.357Z,21.25
2023-05-20T18:30:40.431Z,21.47
2023-05-20T18:33:44.365Z,21.22
2023-05-20T18:36:48.565Z,21.01
2023-05-20T18:39:54.055Z,21.13
2023-05-20T18:42:58.613Z,21.31
2023-05-20T18:46:02.775Z,21.24
2023-05-20T18:49:07.043Z,21.29
2023-05-20T18:52:11.268Z,21.14
2023-05-20T18:55:16.899Z,21.17
2023-05-20T18:58:21.024Z,21.14
2023-05-20T19:01:25.122Z,21.24
2023-05-20T19:04:29.205Z,21.22
2023-05-20T19:07:33.472Z,21.19
2023-05-20T19:10:38.912Z,20.85
2023-05-20T19:13:42.973Z,20.81
2023-05-20T19:16:47.232Z,20.80
2023-05-20T19:19:51.252Z,20.81
2023-05-20T19:22:55.245Z,20.91
2023-05-20T19:26:00.973Z,20.75
2023-05-20T19:29:04.991Z,20.82
2023-05-20T19:32:09.478Z,20.69
2023-05-20T19:35:13.495Z,20.67
2023-05-20T19:38:17.709Z,20.61
2023-05-20T19:41:23.357Z,20.77
2023-05-20T19:44:27.228Z,20.74
2023-05-20T19:47:31.212Z,20.76
2023-05-20T19:50:36.738Z,20.71
2023-05-20T19:53:40.728Z,20.79
2023-05-20T19:56:46.432Z,20.59
2023-05-20T19:59:52.228Z,20.54
2023-05-20T20:02:58.402Z,20.69
2023-05-20T20:06:02.664Z,20.59
2023-05-20T20:09:06.667Z,20.46
2023-05-20T20:12:12.262Z,20.36
2023-05-20T20:15:16.444Z,20.39
2023-05-20T20:18:20.365Z,20.42
2023-05-20T20:21:26.023Z,20.18
2023-05-20T20:24:30.092Z,20.20
2023-05-20T20:27:35.676Z,20.22
2023-05-20T20:30:39.784Z,20.28
2023-05-20T20:33:43.923Z,20.23
2023-05-20T20:36:48.601Z,20.22
2023-05-20T20:39:52.601Z,20.31
2023-05-20T20:42:58.741Z,20.38
2023-05-20T20:46:02.897Z,20.49
2023-05-20T20:49:06.916Z,20.53
2023-05-20T20:52:11.397Z,20.45
2023-05-20T20:55:15.671Z,20.37
2023-05-20T20:58:21.291Z,20.52
2023-05-20T21:01:25.835Z,20.48
2023-05-20T21:04:29.966Z,20.29
2023-05-20T21:07:34.004Z,20.38
2023-05-20T21:10:38.570Z,20.11
2023-05-20T21:13:44.203Z,20.23
2023-05-20T21:16:48.172Z,20.18
2023-05-20T21:19:52.228Z,20.08
2023-05-20T21:22:56.137Z,20.16
2023-05-20T21:26:00.225Z,20.18
2023-05-20T21:29:06.393Z,20.26
2023-05-20T21:32:10.412Z,20.22
2023-05-20T21:35:14.451Z,20.04
2023-05-20T21:38:18.494Z,19.93
2023-05-20T21:41:23.746Z,19.86
2023-05-20T21:44:29.268Z,19.75
2023-05-20T21:47:33.268Z,19.88
2023-05-20T21:50:37.307Z,19.96
2023-05-20T21:53:41.388Z,20.05
2023-05-20T21:56:45.448Z,20.11
2023-05-20T21:59:51.045Z,20.10
2023-05-20T22:02:55.183Z,19.97
2023-05-20T22:05:59.174Z,19.71
2023-05-20T22:09:03.951Z,19.66
2023-05-20T22:12:08.177Z,19.45
2023-05-20T22:15:13.939Z,19.72
2023-05-20T22:18:18.038Z,19.74
2023-05-20T22:21:22.172Z,19.98
2023-05-20T22:24:26.145Z,20.05
2023-05-20T22:27:30.220Z,19.88
2023-05-20T22:30:35.927Z,19.94
2023-05-20T22:33:41.792Z,19.92
2023-05-20T22:36:45.780Z,19.80
2023-05-20T22:39:49.794Z,19.62
2023-05-20T22:42:53.942Z,19.73
2023-05-20T22:45:59.538Z,19.76
2023-05-20T22:49:03.554Z,19.52
2023-05-20T22:52:08.025Z,19.63
2023-05-20T22:55:12.955Z,19.39
2023-05-20T22:58:17.269Z,19.52
2023-05-20T23:01:22.718Z,19.58
2023-05-20T23:04:26.802Z,19.24
2023-05-20T23:07:31.533Z,19.49
2023-05-20T23:10:35.601Z,19.58
2023-05-20T23:13:39.568Z,19.53
2023-05-20T23:16:45.541Z,19.53
2023-05-20T23:19:49.602Z,19.32
2023-05-20T23:22:53.573Z,19.31
2023-05-20T23:25:57.667Z,19.28
2023-05-20T23:29:01.748Z,19.43
2023-05-20T23:32:09.146Z,19.37
2023-05-20T23:35:13.540Z,19.38
2023-05-20T23:38:17.979Z,19.38
2023-05-20T23:41:22.750Z,19.26
2023-05-20T23:44:26.854Z,19.28
2023-05-20T23:47:32.430Z,19.28
2023-05-20T23:50:36.460Z,19.14
2023-05-20T23:53:41.289Z,19.07
2023-05-20T23:56:45.448Z,19.21
2023-05-20T23:59:50.249Z,19.22
